Time;durP1;ratioP1;P1;durP2;ratioP2;P2;SDS_P1;SDS_P2;PMS_P1;PMS_P2;Temp;Humidity;BMP_temperature;BMP_pressure;BME280_temperature;BME280_humidity;BME280_pressure;Samples;Min_cycle;Max_cycle;Signal;HPM_P1;HPM_P2
2022/04/13 00:01:58;;;;;;;4.60;2.53;;;;;;;;;;4987307;28;20719;-71
2022/04/13 00:04:23;;;;;;;6.47;2.57;;;;;;;;;;4994454;28;20599;-70
2022/04/13 00:06:48;;;;;;;9.52;3.28;;;;;;;;;;4990034;28;20340;-70
2022/04/13 00:09:13;;;;;;;5.47;2.47;;;;;;;;;;5008990;28;20052;-71
2022/04/13 00:11:39;;;;;;;6.47;2.27;;;;;;;;;;4994119;28;20065;-71
2022/04/13 00:14:04;;;;;;;12.75;2.30;;;;;;;;;;5015867;22;20350;-66
2022/04/13 00:16:29;;;;;;;7.13;2.50;;;;;;;;;;4992811;28;20057;-66
2022/04/13 00:18:54;;;;;;;8.82;1.98;;;;;;;;;;4989344;28;20056;-66
2022/04/13 00:21:20;;;;;;;8.98;2.78;;;;;;;;;;4988370;28;20026;-67
2022/04/13 00:23:45;;;;;;;4.75;2.47;;;;;;;;;;4989409;28;20029;-66
2022/04/13 00:26:10;;;;;;;5.57;2.30;;;;;;;;;;4989400;28;20058;-66
2022/04/13 00:28:36;;;;;;;7.63;2.43;;;;;;;;;;4988528;28;20394;-66
2022/04/13 00:31:01;;;;;;;6.60;2.25;;;;;;;;;;4985535;28;20301;-66
2022/04/13 00:33:26;;;;;;;10.40;2.85;;;;;;;;;;4987946;28;20041;-66
2022/04/13 00:35:53;;;;;;;6.13;2.58;;;;;;;;;;4989881;28;20022;-66
2022/04/13 00:38:19;;;;;;;4.72;2.25;;;;;;;;;;4990058;28;20500;-66
2022/04/13 00:40:44;;;;;;;7.50;2.58;;;;;;;;;;4989153;28;20429;-66
2022/04/13 00:43:10;;;;;;;14.50;2.33;;;;;;;;;;4989441;28;20026;-66
2022/04/13 00:45:35;;;;;;;5.20;2.00;;;;;;;;;;4989919;28;20284;-66
2022/04/13 00:48:01;;;;;;;8.20;2.60;;;;;;;;;;4985602;28;20088;-66
2022/04/13 00:50:27;;;;;;;8.85;2.30;;;;;;;;;;4987890;28;20266;-66
2022/04/13 00:52:52;;;;;;;5.53;2.10;;;;;;;;;;4986331;28;20073;-66
2022/04/13 00:55:18;;;;;;;5.53;1.95;;;;;;;;;;4989046;28;20812;-66
2022/04/13 00:57:45;;;;;;;6.03;2.13;;;;;;;;;;4990395;28;20610;-66
2022/04/13 01:00:11;;;;;;;4.10;2.05;;;;;;;;;;4987766;28;20120;-66
2022/04/13 01:02:36;;;;;;;5.97;2.40;;;;;;;;;;4984232;28;20058;-66
2022/04/13 01:05:03;;;;;;;6.15;2.58;;;;;;;;;;4988050;28;20022;-66
2022/04/13 01:07:29;;;;;;;11.63;2.38;;;;;;;;;;4988762;28;20174;-66
2022/04/13 01:09:54;;;;;;;3.72;2.08;;;;;;;;;;4985945;28;20487;-66
2022/04/13 01:12:19;;;;;;;4.15;2.10;;;;;;;;;;4991391;28;20045;-66
2022/04/13 01:14:44;;;;;;;10.47;2.80;;;;;;;;;;4988652;28;20045;-66
2022/04/13 01:17:09;;;;;;;3.42;1.80;;;;;;;;;;4990184;28;20281;-67
2022/04/13 01:19:35;;;;;;;6.93;1.90;;;;;;;;;;4988773;28;20106;-66
2022/04/13 01:22:13;;;;;;;4.22;2.28;;;;;;;;;;4988124;28;20631;-66
2022/04/13 01:24:38;;;;;;;4.95;2.30;;;;;;;;;;4989161;28;20081;-67
2022/04/13 01:27:03;;;;;;;9.67;2.40;;;;;;;;;;4991339;28;20054;-66
2022/04/13 01:29:28;;;;;;;5.72;2.45;;;;;;;;;;4988630;28;20786;-67
2022/04/13 01:31:55;;;;;;;6.45;2.53;;;;;;;;;;4988841;28;20034;-66
2022/04/13 01:34:20;;;;;;;7.20;2.20;;;;;;;;;;4989187;28;20022;-66
2022/04/13 01:36:46;;;;;;;4.28;2.35;;;;;;;;;;4987115;28;20577;-66
2022/04/13 01:39:11;;;;;;;9.70;2.35;;;;;;;;;;4988387;28;20023;-66
2022/04/13 01:41:36;;;;;;;4.07;2.27;;;;;;;;;;4988477;28;20030;-66
2022/04/13 01:44:01;;;;;;;6.83;2.43;;;;;;;;;;4987485;28;20750;-66
2022/04/13 01:46:26;;;;;;;6.45;2.78;;;;;;;;;;4993503;28;20272;-66
2022/04/13 01:48:52;;;;;;;6.85;2.28;;;;;;;;;;4985606;28;20064;-66
2022/04/13 01:51:20;;;;;;;10.23;2.47;;;;;;;;;;4995401;28;20038;-66
2022/04/13 01:53:45;;;;;;;9.45;2.60;;;;;;;;;;4997749;28;20034;-66
2022/04/13 01:56:10;;;;;;;6.70;2.00;;;;;;;;;;4995902;28;20436;-66
2022/04/13 01:58:36;;;;;;;13.40;2.25;;;;;;;;;;4987878;28;20476;-66
2022/04/13 02:01:01;;;;;;;5.20;2.20;;;;;;;;;;4992104;28;20023;-67
2022/04/13 02:03:27;;;;;;;3.45;2.20;;;;;;;;;;4992047;28;20361;-66
2022/04/13 02:05:52;;;;;;;4.95;2.20;;;;;;;;;;4989778;28;20019;-66
2022/04/13 02:08:20;;;;;;;4.80;2.47;;;;;;;;;;4991641;28;20053;-67
2022/04/13 02:10:46;;;;;;;4.90;2.58;;;;;;;;;;4992158;28;20113;-66
2022/04/13 02:13:11;;;;;;;4.97;2.20;;;;;;;;;;4993206;28;20521;-66
2022/04/13 02:15:36;;;;;;;6.97;2.57;;;;;;;;;;4990324;28;20033;-66
2022/04/13 02:18:02;;;;;;;11.05;2.50;;;;;;;;;;4992717;28;20684;-66
2022/04/13 02:20:27;;;;;;;7.15;2.22;;;;;;;;;;4994761;28;20060;-66
2022/04/13 02:22:52;;;;;;;5.07;2.43;;;;;;;;;;4988672;28;20033;-66
2022/04/13 02:25:17;;;;;;;7.25;2.30;;;;;;;;;;4989702;28;20281;-66
2022/04/13 02:27:42;;;;;;;6.68;2.22;;;;;;;;;;4990586;28;20011;-66
2022/04/13 02:30:08;;;;;;;5.83;2.43;;;;;;;;;;4989013;28;20031;-66
2022/04/13 02:32:36;;;;;;;13.23;2.95;;;;;;;;;;4991200;28;20292;-66
2022/04/13 02:35:01;;;;;;;20.92;3.80;;;;;;;;;;4986937;28;20576;-66
2022/04/13 02:37:26;;;;;;;10.30;2.50;;;;;;;;;;4991400;28;20146;-65
2022/04/13 02:39:51;;;;;;;3.53;2.30;;;;;;;;;;4989614;28;20066;-66
2022/04/13 02:42:17;;;;;;;6.88;2.42;;;;;;;;;;4990601;28;20269;-66
2022/04/13 02:44:42;;;;;;;5.18;2.50;;;;;;;;;;4990546;28;20023;-66
2022/04/13 02:47:07;;;;;;;5.05;2.55;;;;;;;;;;4991191;28;20121;-66
2022/04/13 02:49:32;;;;;;;5.65;2.60;;;;;;;;;;4990318;28;20126;-66
2022/04/13 02:51:57;;;;;;;11.00;3.17;;;;;;;;;;4989160;28;20113;-66
2022/04/13 02:54:23;;;;;;;9.53;2.67;;;;;;;;;;4973008;28;20769;-66
2022/04/13 02:56:48;;;;;;;6.00;2.40;;;;;;;;;;4989234;28;20273;-65
2022/04/13 02:59:13;;;;;;;6.30;2.97;;;;;;;;;;4992966;28;20045;-66
2022/04/13 03:01:38;;;;;;;4.57;2.43;;;;;;;;;;4987749;28;20277;-66
2022/04/13 03:04:03;;;;;;;8.73;2.78;;;;;;;;;;4970428;28;20365;-65
2022/04/13 03:06:28;;;;;;;9.10;2.72;;;;;;;;;;4990503;28;20036;-66
2022/04/13 03:08:54;;;;;;;9.48;2.50;;;;;;;;;;4989848;28;20077;-66
2022/04/13 03:11:19;;;;;;;5.33;3.07;;;;;;;;;;4991076;28;20026;-66
2022/04/13 03:13:46;;;;;;;6.77;3.30;;;;;;;;;;4990536;28;20283;-66
2022/04/13 03:16:11;;;;;;;10.13;2.97;;;;;;;;;;4988623;28;20382;-66
2022/04/13 03:18:36;;;;;;;5.05;2.63;;;;;;;;;;4991137;28;20107;-66
2022/04/13 03:21:02;;;;;;;4.40;2.73;;;;;;;;;;4989534;28;20027;-66
2022/04/13 03:23:27;;;;;;;9.80;3.30;;;;;;;;;;4989176;28;20356;-66
2022/04/13 03:25:52;;;;;;;7.97;3.07;;;;;;;;;;4988544;28;20343;-66
2022/04/13 03:28:19;;;;;;;7.13;2.63;;;;;;;;;;4989828;28;20316;-66
2022/04/13 03:30:44;;;;;;;6.50;2.80;;;;;;;;;;4989245;28;20066;-67
2022/04/13 03:33:10;;;;;;;13.73;3.67;;;;;;;;;;4986171;28;20037;-67
2022/04/13 03:35:35;;;;;;;8.13;3.03;;;;;;;;;;4992571;28;20312;-66
2022/04/13 03:38:00;;;;;;;4.88;2.60;;;;;;;;;;4989717;28;20281;-66
2022/04/13 03:40:26;;;;;;;7.23;2.50;;;;;;;;;;4988883;28;20021;-66
2022/04/13 03:42:51;;;;;;;10.75;3.50;;;;;;;;;;4989331;28;20622;-66
2022/04/13 03:45:16;;;;;;;9.97;3.03;;;;;;;;;;4990403;28;20046;-66
2022/04/13 03:47:41;;;;;;;8.53;2.87;;;;;;;;;;4986677;28;20642;-66
2022/04/13 03:50:07;;;;;;;6.03;2.75;;;;;;;;;;4992506;28;20282;-67
2022/04/13 03:52:33;;;;;;;11.20;2.90;;;;;;;;;;4987871;28;20038;-66
2022/04/13 03:54:58;;;;;;;7.78;2.95;;;;;;;;;;4989542;28;20073;-67
2022/04/13 03:57:23;;;;;;;6.65;3.05;;;;;;;;;;4983836;28;20058;-66
2022/04/13 03:59:50;;;;;;;4.57;3.03;;;;;;;;;;4989017;28;20023;-67
2022/04/13 04:02:16;;;;;;;11.00;2.67;;;;;;;;;;4988524;28;20272;-67
2022/04/13 04:04:41;;;;;;;7.88;2.70;;;;;;;;;;4989469;28;20015;-67
2022/04/13 04:07:06;;;;;;;5.85;2.58;;;;;;;;;;4990106;28;20072;-66
2022/04/13 04:09:31;;;;;;;4.90;2.63;;;;;;;;;;4991624;28;20663;-66
2022/04/13 04:11:56;;;;;;;5.30;2.63;;;;;;;;;;4988466;28;20269;-67
2022/04/13 04:14:21;;;;;;;4.83;2.70;;;;;;;;;;4987537;28;20068;-67
2022/04/13 04:16:47;;;;;;;6.97;2.78;;;;;;;;;;4986836;28;20296;-67
2022/04/13 04:19:12;;;;;;;5.50;2.83;;;;;;;;;;4971092;28;20295;-66
2022/04/13 04:21:37;;;;;;;10.00;2.90;;;;;;;;;;4989224;28;20669;-67
2022/04/13 04:24:02;;;;;;;11.88;2.75;;;;;;;;;;4969348;28;20272;-67
2022/04/13 04:26:27;;;;;;;11.68;3.00;;;;;;;;;;4984362;28;20014;-67
2022/04/13 04:28:53;;;;;;;10.00;3.00;;;;;;;;;;4992204;28;20120;-67
2022/04/13 04:31:49;;;;;;;7.00;2.93;;;;;;;;;;4988042;28;20313;-66
2022/04/13 04:34:03;;;;;;;7.80;3.10;;;;;;;;;;4986639;28;21045;-66
2022/04/13 04:36:28;;;;;;;6.03;2.78;;;;;;;;;;4988630;28;20018;-66
2022/04/13 04:38:54;;;;;;;5.03;2.80;;;;;;;;;;4990099;28;20065;-66
2022/04/13 04:41:19;;;;;;;7.53;3.43;;;;;;;;;;4981678;28;20034;-67
2022/04/13 04:43:44;;;;;;;8.25;3.10;;;;;;;;;;4984255;28;20579;-67
2022/04/13 04:46:10;;;;;;;6.30;3.17;;;;;;;;;;4985531;28;20301;-66
2022/04/13 04:48:36;;;;;;;8.95;3.30;;;;;;;;;;4985786;28;20277;-66
2022/04/13 04:51:01;;;;;;;9.18;3.28;;;;;;;;;;4985716;28;20037;-67
2022/04/13 04:53:26;;;;;;;8.45;3.45;;;;;;;;;;4990883;28;20026;-66
2022/04/13 04:55:51;;;;;;;7.88;3.72;;;;;;;;;;4992100;28;20026;-67
2022/04/13 04:58:16;;;;;;;6.20;3.20;;;;;;;;;;4992412;28;20027;-66
2022/04/13 05:00:41;;;;;;;6.60;3.15;;;;;;;;;;4985232;28;20281;-66
2022/04/13 05:03:08;;;;;;;11.77;3.57;;;;;;;;;;4984731;28;20269;-66
2022/04/13 05:05:33;;;;;;;7.40;3.67;;;;;;;;;;4985458;28;20269;-66
2022/04/13 05:07:58;;;;;;;4.82;3.17;;;;;;;;;;4984633;28;20021;-66
2022/04/13 05:10:23;;;;;;;6.80;3.72;;;;;;;;;;4987820;28;20038;-67
2022/04/13 05:12:50;;;;;;;10.30;3.60;;;;;;;;;;4982389;28;20027;-67
2022/04/13 05:15:15;;;;;;;7.55;3.63;;;;;;;;;;4983796;28;20161;-66
2022/04/13 05:17:40;;;;;;;9.55;3.80;;;;;;;;;;4985426;28;20485;-66
2022/04/13 05:20:07;;;;;;;7.72;3.08;;;;;;;;;;4983889;28;20510;-66
2022/04/13 05:22:33;;;;;;;8.75;3.17;;;;;;;;;;4994352;28;20045;-66
2022/04/13 05:25:07;;;;;;;12.32;3.63;;;;;;;;;;4992597;28;20475;-66
2022/04/13 05:27:32;;;;;;;6.35;3.08;;;;;;;;;;4988342;28;20426;-67
2022/04/13 05:29:57;;;;;;;7.53;3.03;;;;;;;;;;4989604;28;20027;-67
2022/04/13 05:32:23;;;;;;;8.50;3.05;;;;;;;;;;4990459;28;20330;-67
2022/04/13 05:34:48;;;;;;;11.27;3.57;;;;;;;;;;4986759;28;20085;-66
2022/04/13 05:37:13;;;;;;;11.90;3.40;;;;;;;;;;4992233;28;20284;-66
2022/04/13 05:39:38;;;;;;;6.63;2.90;;;;;;;;;;4997132;28;20062;-66
2022/04/13 05:42:04;;;;;;;6.00;3.15;;;;;;;;;;4982115;28;20042;-66
2022/04/13 05:44:29;;;;;;;9.13;3.05;;;;;;;;;;4986517;28;20041;-66
2022/04/13 05:46:54;;;;;;;4.38;2.83;;;;;;;;;;4992681;28;20558;-66
2022/04/13 05:49:19;;;;;;;6.93;3.50;;;;;;;;;;4992823;28;20081;-67
2022/04/13 05:51:44;;;;;;;5.82;3.42;;;;;;;;;;4989671;28;20038;-66
2022/04/13 05:54:10;;;;;;;10.60;3.92;;;;;;;;;;4985862;28;20546;-66
2022/04/13 05:56:35;;;;;;;8.70;2.95;;;;;;;;;;4986652;28;20077;-66
2022/04/13 05:59:00;;;;;;;13.88;3.58;;;;;;;;;;4986364;28;20475;-66
2022/04/13 06:01:26;;;;;;;11.30;3.42;;;;;;;;;;4990845;28;20020;-66
2022/04/13 06:03:51;;;;;;;11.10;3.03;;;;;;;;;;4990142;28;20482;-66
2022/04/13 06:06:16;;;;;;;11.13;3.08;;;;;;;;;;4983046;28;20030;-66
2022/04/13 06:08:41;;;;;;;12.98;2.78;;;;;;;;;;4993651;28;20026;-66
2022/04/13 06:11:06;;;;;;;11.05;3.00;;;;;;;;;;4993010;28;20571;-66
2022/04/13 06:13:32;;;;;;;5.95;3.30;;;;;;;;;;5004332;28;20033;-67
2022/04/13 06:15:57;;;;;;;6.80;3.28;;;;;;;;;;4984400;28;20500;-67
2022/04/13 06:18:22;;;;;;;10.43;4.20;;;;;;;;;;4986030;28;20544;-67
2022/04/13 06:20:47;;;;;;;8.33;2.87;;;;;;;;;;4987450;28;20026;-67
2022/04/13 06:23:13;;;;;;;8.18;3.10;;;;;;;;;;4984435;28;20778;-67
2022/04/13 06:25:38;;;;;;;7.03;2.90;;;;;;;;;;4985260;28;20030;-66
2022/04/13 06:28:03;;;;;;;8.17;3.40;;;;;;;;;;4992472;28;20761;-67
2022/04/13 06:30:28;;;;;;;7.32;3.40;;;;;;;;;;4982304;28;20358;-67
2022/04/13 06:32:54;;;;;;;7.70;2.95;;;;;;;;;;4981913;28;20378;-67
2022/04/13 06:35:19;;;;;;;15.87;4.00;;;;;;;;;;4989446;28;20050;-67
2022/04/13 06:37:45;;;;;;;4.90;3.07;;;;;;;;;;4989770;28;20626;-67
2022/04/13 06:40:10;;;;;;;8.73;2.92;;;;;;;;;;4986968;28;20340;-66
2022/04/13 06:42:39;;;;;;;6.25;3.13;;;;;;;;;;4985815;28;20030;-67
2022/04/13 06:45:05;;;;;;;8.48;3.30;;;;;;;;;;4983971;28;20027;-67
2022/04/13 06:47:30;;;;;;;14.82;4.25;;;;;;;;;;4987441;28;20618;-67
2022/04/13 06:49:55;;;;;;;7.03;3.78;;;;;;;;;;4987467;28;20022;-67
2022/04/13 06:52:21;;;;;;;9.20;4.90;;;;;;;;;;4988368;28;20081;-67
2022/04/13 06:54:46;;;;;;;14.80;5.07;;;;;;;;;;4988509;28;20062;-67
2022/04/13 06:57:12;;;;;;;13.13;5.07;;;;;;;;;;4990210;28;20278;-67
2022/04/13 06:59:37;;;;;;;12.20;4.30;;;;;;;;;;4989570;28;20510;-67
2022/04/13 07:02:02;;;;;;;9.57;4.40;;;;;;;;;;4988794;28;20030;-67
2022/04/13 07:04:28;;;;;;;10.05;4.90;;;;;;;;;;4982362;28;20270;-67
2022/04/13 07:06:53;;;;;;;13.48;4.90;;;;;;;;;;4987970;28;20324;-67
2022/04/13 07:09:18;;;;;;;11.13;4.80;;;;;;;;;;4996613;28;20022;-67
2022/04/13 07:11:44;;;;;;;10.00;4.97;;;;;;;;;;4998500;28;20027;-67
2022/04/13 07:14:09;;;;;;;13.30;4.60;;;;;;;;;;4995032;28;20282;-67
2022/04/13 07:16:34;;;;;;;18.67;5.55;;;;;;;;;;5005793;28;20060;-67
2022/04/13 07:18:59;;;;;;;8.18;4.75;;;;;;;;;;4991059;28;20385;-67
2022/04/13 07:21:24;;;;;;;11.87;4.10;;;;;;;;;;4989680;28;20060;-67
2022/04/13 07:23:49;;;;;;;10.35;5.28;;;;;;;;;;4989549;28;20608;-67
2022/04/13 07:26:15;;;;;;;13.57;5.67;;;;;;;;;;4996830;28;20378;-67
2022/04/13 07:28:40;;;;;;;9.68;4.65;;;;;;;;;;4987137;28;20567;-67
2022/04/13 07:31:05;;;;;;;13.57;5.40;;;;;;;;;;4990440;28;20026;-67
2022/04/13 07:33:31;;;;;;;10.15;5.10;;;;;;;;;;4986877;28;20746;-67
2022/04/13 07:35:56;;;;;;;14.45;5.75;;;;;;;;;;4990677;28;20038;-67
2022/04/13 07:38:21;;;;;;;16.20;5.63;;;;;;;;;;4988919;28;20080;-68
2022/04/13 07:40:46;;;;;;;13.60;6.13;;;;;;;;;;4984247;28;20022;-67
2022/04/13 07:43:13;;;;;;;17.08;5.55;;;;;;;;;;4987107;28;20036;-67
2022/04/13 07:45:39;;;;;;;15.30;5.20;;;;;;;;;;4984958;28;20057;-67
2022/04/13 07:48:05;;;;;;;16.65;5.78;;;;;;;;;;4987472;28;20026;-67
2022/04/13 07:50:30;;;;;;;17.55;5.90;;;;;;;;;;4992899;28;20010;-67
2022/04/13 07:52:57;;;;;;;19.37;6.03;;;;;;;;;;4986120;28;20029;-67
2022/04/13 07:55:22;;;;;;;15.07;6.43;;;;;;;;;;4987413;28;20272;-67
2022/04/13 07:57:47;;;;;;;11.00;5.43;;;;;;;;;;4986864;28;20019;-67
2022/04/13 08:00:12;;;;;;;16.03;5.47;;;;;;;;;;4982435;28;20506;-68
2022/04/13 08:02:39;;;;;;;21.73;6.75;;;;;;;;;;4987558;28;20032;-67
2022/04/13 08:05:05;;;;;;;22.48;6.72;;;;;;;;;;4982954;28;20019;-68
2022/04/13 08:07:30;;;;;;;22.08;8.43;;;;;;;;;;4986417;28;20037;-68
2022/04/13 08:09:55;;;;;;;26.13;6.38;;;;;;;;;;4998668;28;20026;-68
2022/04/13 08:12:20;;;;;;;17.30;6.87;;;;;;;;;;4985956;28;20479;-68
2022/04/13 08:14:46;;;;;;;14.33;6.43;;;;;;;;;;4990914;28;20076;-68
2022/04/13 08:17:12;;;;;;;21.45;7.20;;;;;;;;;;4985983;28;20339;-68
2022/04/13 08:19:37;;;;;;;18.80;6.45;;;;;;;;;;4970150;28;20169;-68
2022/04/13 08:22:02;;;;;;;22.33;7.03;;;;;;;;;;4985909;28;20471;-69
2022/04/13 08:24:29;;;;;;;20.10;7.55;;;;;;;;;;4987629;28;20626;-68
2022/04/13 08:26:54;;;;;;;24.30;7.43;;;;;;;;;;4986714;28;20032;-68
2022/04/13 08:29:19;;;;;;;20.90;7.40;;;;;;;;;;4991793;28;20035;-68
2022/04/13 08:31:45;;;;;;;24.15;6.93;;;;;;;;;;4985645;28;20104;-68
2022/04/13 08:34:10;;;;;;;18.83;6.97;;;;;;;;;;4986553;28;20058;-68
2022/04/13 08:36:35;;;;;;;22.95;7.43;;;;;;;;;;4987407;28;20018;-67
2022/04/13 08:39:00;;;;;;;19.10;6.97;;;;;;;;;;4982920;28;20027;-67
2022/04/13 08:41:33;;;;;;;20.80;8.67;;;;;;;;;;4988462;28;20034;-67
2022/04/13 08:44:01;;;;;;;24.70;8.32;;;;;;;;;;4988942;28;20304;-67
2022/04/13 08:46:27;;;;;;;22.95;8.23;;;;;;;;;;4985103;28;20372;-67
2022/04/13 08:48:55;;;;;;;20.15;7.53;;;;;;;;;;4968192;28;20113;-67
2022/04/13 08:51:21;;;;;;;23.30;8.95;;;;;;;;;;4982801;28;20022;-67
2022/04/13 08:53:48;;;;;;;19.52;7.93;;;;;;;;;;4983649;28;20061;-67
2022/04/13 08:56:16;;;;;;;23.33;8.85;;;;;;;;;;4988453;28;20018;-68
2022/04/13 08:58:49;;;;;;;25.83;9.35;;;;;;;;;;4996385;28;20053;-67
2022/04/13 09:01:20;;;;;;;21.75;8.27;;;;;;;;;;4989596;28;20030;-68
2022/04/13 09:03:48;;;;;;;20.75;7.50;;;;;;;;;;4983945;28;20026;-68
2022/04/13 09:06:14;;;;;;;17.98;7.32;;;;;;;;;;4989233;28;20016;-67
2022/04/13 09:08:41;;;;;;;21.55;8.52;;;;;;;;;;4987246;28;20129;-67
2022/04/13 09:11:07;;;;;;;25.35;9.18;;;;;;;;;;4992419;28;20050;-67
2022/04/13 09:13:33;;;;;;;21.58;9.00;;;;;;;;;;4990485;28;20041;-68
2022/04/13 09:15:58;;;;;;;26.42;8.80;;;;;;;;;;4992418;28;20048;-68
2022/04/13 09:18:24;;;;;;;19.58;9.13;;;;;;;;;;4992027;28;20089;-67
2022/04/13 09:20:50;;;;;;;21.45;8.82;;;;;;;;;;4991913;28;20386;-68
2022/04/13 09:23:15;;;;;;;19.02;9.05;;;;;;;;;;4989509;28;20057;-68
2022/04/13 09:25:40;;;;;;;22.75;7.90;;;;;;;;;;4988499;28;20025;-68
2022/04/13 09:28:06;;;;;;;27.52;7.90;;;;;;;;;;4992399;28;20356;-67
2022/04/13 09:30:32;;;;;;;15.38;7.35;;;;;;;;;;4992182;28;20117;-68
2022/04/13 09:32:57;;;;;;;20.10;8.45;;;;;;;;;;4991329;28;20023;-67
2022/04/13 09:35:22;;;;;;;18.50;6.68;;;;;;;;;;4992870;28;20077;-67
2022/04/13 09:37:47;;;;;;;16.50;7.10;;;;;;;;;;4992319;28;20045;-67
2022/04/13 09:40:45;;;;;;;23.57;7.53;;;;;;;;;;4992261;28;20030;-69
2022/04/13 09:43:14;;;;;;;21.27;7.72;;;;;;;;;;4933383;28;20033;-68
2022/04/13 09:45:50;;;;;;;18.10;6.47;;;;;;;;;;4991051;28;20010;-68
2022/04/13 09:48:19;;;;;;;20.20;6.68;;;;;;;;;;4991318;28;20101;-68
2022/04/13 09:50:46;;;;;;;17.52;6.03;;;;;;;;;;4988938;28;20033;-67
2022/04/13 09:53:12;;;;;;;15.10;5.93;;;;;;;;;;4986790;28;20019;-67
2022/04/13 09:55:39;;;;;;;17.05;5.40;;;;;;;;;;4989654;28;20026;-67
2022/04/13 09:58:14;;;;;;;21.17;6.70;;;;;;;;;;4986707;28;20026;-67
2022/04/13 10:00:39;;;;;;;16.80;4.90;;;;;;;;;;4991224;28;20382;-67
2022/04/13 10:03:12;;;;;;;14.95;5.60;;;;;;;;;;4988859;28;20030;-67
2022/04/13 10:05:38;;;;;;;10.15;4.20;;;;;;;;;;4990127;28;20064;-67
2022/04/13 10:08:04;;;;;;;16.58;5.75;;;;;;;;;;4987477;28;20061;-67
2022/04/13 10:10:29;;;;;;;19.83;5.00;;;;;;;;;;4983576;28;20022;-67
2022/04/13 10:12:55;;;;;;;19.63;5.35;;;;;;;;;;4992430;28;20429;-67
2022/04/13 10:15:20;;;;;;;18.50;7.30;;;;;;;;;;4988084;28;20022;-68
2022/04/13 10:17:45;;;;;;;15.57;6.47;;;;;;;;;;4990857;28;20293;-68
2022/04/13 10:20:10;;;;;;;22.63;6.85;;;;;;;;;;4994673;28;20038;-68
2022/04/13 10:22:54;;;;;;;24.95;6.40;;;;;;;;;;4996418;28;20049;-68
2022/04/13 10:25:26;;;;;;;33.17;7.03;;;;;;;;;;4997094;28;20122;-68
2022/04/13 10:27:52;;;;;;;19.10;6.30;;;;;;;;;;4989781;28;20026;-67
2022/04/13 10:30:23;;;;;;;21.30;7.75;;;;;;;;;;4988780;28;20034;-67
2022/04/13 10:32:56;;;;;;;26.27;6.80;;;;;;;;;;4994465;28;20030;-67
2022/04/13 10:35:21;;;;;;;22.15;8.20;;;;;;;;;;4987694;28;20022;-67
2022/04/13 10:37:46;;;;;;;18.80;6.95;;;;;;;;;;4988889;28;20498;-67
2022/04/13 10:40:11;;;;;;;17.20;6.73;;;;;;;;;;4984273;28;20542;-67
2022/04/13 10:42:38;;;;;;;15.80;4.33;;;;;;;;;;4987406;28;20011;-67
2022/04/13 10:45:05;;;;;;;14.55;4.90;;;;;;;;;;4986826;28;20026;-68
2022/04/13 10:47:30;;;;;;;17.20;5.72;;;;;;;;;;4991472;28;20620;-68
2022/04/13 10:49:56;;;;;;;15.75;5.38;;;;;;;;;;4987416;28;20045;-68
2022/04/13 10:52:28;;;;;;;16.17;4.72;;;;;;;;;;4990102;28;20423;-67
2022/04/13 10:55:04;;;;;;;13.98;4.55;;;;;;;;;;4987259;28;20058;-67
2022/04/13 10:57:37;;;;;;;14.70;4.32;;;;;;;;;;4984387;28;20028;-68
2022/04/13 11:00:03;;;;;;;9.65;3.17;;;;;;;;;;4980435;28;20057;-68
2022/04/13 11:02:36;;;;;;;13.70;3.63;;;;;;;;;;4982513;28;20019;-68
2022/04/13 11:05:02;;;;;;;17.73;4.07;;;;;;;;;;4984494;28;20465;-68
2022/04/13 11:07:27;;;;;;;14.85;3.42;;;;;;;;;;4983187;28;20109;-68
2022/04/13 11:09:55;;;;;;;17.83;4.03;;;;;;;;;;4987479;28;20498;-68
2022/04/13 11:12:21;;;;;;;8.20;3.15;;;;;;;;;;4986254;28;20417;-68
2022/04/13 11:14:49;;;;;;;13.50;3.90;;;;;;;;;;4988609;28;20121;-68
2022/04/13 11:17:14;;;;;;;13.27;3.45;;;;;;;;;;4988063;28;20038;-68
2022/04/13 11:19:42;;;;;;;13.60;3.87;;;;;;;;;;4986948;28;20064;-68
2022/04/13 11:22:09;;;;;;;11.05;3.20;;;;;;;;;;4983460;28;20277;-68
2022/04/13 11:24:38;;;;;;;8.35;3.30;;;;;;;;;;4985602;28;20033;-68
2022/04/13 11:27:04;;;;;;;14.50;4.93;;;;;;;;;;4988386;28;20030;-68
2022/04/13 11:29:33;;;;;;;11.60;3.15;;;;;;;;;;4985405;28;20023;-68
2022/04/13 11:32:02;;;;;;;12.38;3.70;;;;;;;;;;4987265;28;20113;-68
2022/04/13 11:34:30;;;;;;;14.55;3.25;;;;;;;;;;4993977;28;20444;-67
2022/04/13 11:36:59;;;;;;;15.35;3.55;;;;;;;;;;4989986;28;20076;-67
2022/04/13 11:39:43;;;;;;;14.70;3.83;;;;;;;;;;4989444;28;20121;-67
2022/04/13 11:42:15;;;;;;;17.67;4.65;;;;;;;;;;4984617;28;20120;-67
2022/04/13 11:44:47;;;;;;;17.33;5.43;;;;;;;;;;4986137;28;20042;-67
2022/04/13 11:47:13;;;;;;;16.80;5.65;;;;;;;;;;4985966;28;20733;-67
2022/04/13 11:49:53;;;;;;;20.40;5.28;;;;;;;;;;4985716;28;20033;-67
2022/04/13 11:52:36;;;;;;;16.73;5.20;;;;;;;;;;4984825;28;20029;-68
2022/04/13 11:55:04;;;;;;;17.15;6.65;;;;;;;;;;4982513;28;20121;-67
2022/04/13 11:57:49;;;;;;;23.88;7.43;;;;;;;;;;4987644;28;20022;-67
2022/04/13 12:00:33;;;;;;;23.85;8.25;;;;;;;;;;4982635;28;20053;-67
2022/04/13 12:02:58;;;;;;;32.00;7.85;;;;;;;;;;4998753;28;20157;-67
2022/04/13 12:05:24;;;;;;;23.85;7.47;;;;;;;;;;4987690;28;20415;-67
2022/04/13 12:07:49;;;;;;;27.03;8.73;;;;;;;;;;4988727;28;20030;-67
2022/04/13 12:10:16;;;;;;;28.95;7.00;;;;;;;;;;4987239;28;20282;-67
2022/04/13 12:12:49;;;;;;;19.50;7.00;;;;;;;;;;4990013;28;20030;-66
2022/04/13 12:15:14;;;;;;;23.67;8.00;;;;;;;;;;4986585;28;20077;-66
2022/04/13 12:17:39;;;;;;;27.50;9.30;;;;;;;;;;4986498;28;20022;-66
2022/04/13 12:20:05;;;;;;;21.53;9.60;;;;;;;;;;4990923;28;20384;-66
2022/04/13 12:22:33;;;;;;;25.50;8.93;;;;;;;;;;4988337;28;20119;-66
2022/04/13 12:24:58;;;;;;;21.05;7.45;;;;;;;;;;4988886;28;20026;-66
2022/04/13 12:27:23;;;;;;;25.30;8.77;;;;;;;;;;4987477;28;20137;-66
2022/04/13 12:29:49;;;;;;;16.98;8.10;;;;;;;;;;4991405;28;20034;-66
2022/04/13 12:32:17;;;;;;;22.65;7.70;;;;;;;;;;4997195;28;20061;-66
2022/04/13 12:34:42;;;;;;;21.75;7.70;;;;;;;;;;5004955;28;20025;-66
2022/04/13 12:37:07;;;;;;;20.20;8.60;;;;;;;;;;4985875;28;20109;-66
2022/04/13 12:39:34;;;;;;;26.43;8.37;;;;;;;;;;4984796;28;20054;-66
2022/04/13 12:42:01;;;;;;;27.05;9.00;;;;;;;;;;4986620;28;20456;-66
2022/04/13 12:44:26;;;;;;;22.13;8.07;;;;;;;;;;4986329;28;20450;-66
2022/04/13 12:47:04;;;;;;;23.88;7.80;;;;;;;;;;4985713;28;20027;-66
2022/04/13 12:49:31;;;;;;;24.92;8.13;;;;;;;;;;4970325;28;20027;-66
2022/04/13 12:51:57;;;;;;;23.70;7.47;;;;;;;;;;4983768;28;20101;-66
2022/04/13 12:54:23;;;;;;;21.95;7.22;;;;;;;;;;4987488;28;20018;-66
2022/04/13 12:56:49;;;;;;;26.85;7.38;;;;;;;;;;4986462;28;20041;-66
2022/04/13 12:59:21;;;;;;;22.30;8.82;;;;;;;;;;4986621;28;20448;-66
2022/04/13 13:01:48;;;;;;;25.80;7.43;;;;;;;;;;4982119;28;20084;-66
2022/04/13 13:04:14;;;;;;;18.17;6.50;;;;;;;;;;4988827;28;20021;-66
2022/04/13 13:06:53;;;;;;;13.85;5.70;;;;;;;;;;4991574;28;20406;-66
2022/04/13 13:09:20;;;;;;;26.98;6.07;;;;;;;;;;4985631;28;20457;-66
2022/04/13 13:11:51;;;;;;;22.00;5.95;;;;;;;;;;4986457;28;20041;-66
2022/04/13 13:14:17;;;;;;;14.73;4.15;;;;;;;;;;4985322;28;20026;-66
2022/04/13 13:16:43;;;;;;;13.37;4.03;;;;;;;;;;4986783;28;20028;-66
2022/04/13 13:19:09;;;;;;;13.23;3.22;;;;;;;;;;4995467;28;20105;-66
2022/04/13 13:21:34;;;;;;;7.18;3.05;;;;;;;;;;4982574;28;20027;-66
2022/04/13 13:23:59;;;;;;;12.50;3.40;;;;;;;;;;4986207;28;20220;-66
2022/04/13 13:26:24;;;;;;;10.32;3.17;;;;;;;;;;4983404;28;20265;-66
2022/04/13 13:28:50;;;;;;;11.43;2.90;;;;;;;;;;4992012;28;20121;-66
2022/04/13 13:31:15;;;;;;;7.83;2.60;;;;;;;;;;4986337;28;20066;-66
2022/04/13 13:33:50;;;;;;;10.13;2.43;;;;;;;;;;4989252;28;20356;-66
2022/04/13 13:36:16;;;;;;;19.15;2.65;;;;;;;;;;4989189;28;20360;-66
2022/04/13 13:38:46;;;;;;;12.98;2.85;;;;;;;;;;4985466;28;20039;-66
2022/04/13 13:41:11;;;;;;;;;;;;;;;;;;4989399;28;20069;-65
2022/04/13 13:43:37;;;;;;;13.20;3.22;;;;;;;;;;4987521;28;19956;-66
2022/04/13 13:46:13;;;;;;;15.00;3.38;;;;;;;;;;4972300;28;20026;-68
2022/04/13 13:48:38;;;;;;;17.95;2.90;;;;;;;;;;4988966;28;20049;-66
2022/04/13 13:51:03;;;;;;;12.52;2.97;;;;;;;;;;4988362;28;21627;-66
2022/04/13 13:53:28;;;;;;;11.43;3.33;;;;;;;;;;4991208;28;20387;-66
2022/04/13 13:55:54;;;;;;;13.67;3.83;;;;;;;;;;4992437;28;20098;-66
2022/04/13 13:58:20;;;;;;;16.00;3.30;;;;;;;;;;4989478;28;20370;-66
2022/04/13 14:00:45;;;;;;;11.27;3.15;;;;;;;;;;4984386;28;20479;-66
2022/04/13 14:03:11;;;;;;;10.88;3.17;;;;;;;;;;4986936;28;20038;-66
2022/04/13 14:05:38;;;;;;;12.45;3.95;;;;;;;;;;4990954;28;20018;-66
2022/04/13 14:08:04;;;;;;;13.57;4.68;;;;;;;;;;4990878;28;20085;-66
2022/04/13 14:10:30;;;;;;;18.73;5.35;;;;;;;;;;4987893;28;20088;-66
2022/04/13 14:12:55;;;;;;;14.43;5.18;;;;;;;;;;4973936;28;20519;-66
2022/04/13 14:15:20;;;;;;;17.20;4.63;;;;;;;;;;4989243;28;20101;-66
2022/04/13 14:17:47;;;;;;;12.83;4.10;;;;;;;;;;4988660;28;20281;-66
2022/04/13 14:20:13;;;;;;;14.15;3.95;;;;;;;;;;5000166;28;20153;-66
2022/04/13 14:22:39;;;;;;;15.68;4.90;;;;;;;;;;4988382;28;20122;-66
2022/04/13 14:25:06;;;;;;;12.10;4.00;;;;;;;;;;4989402;28;20026;-66
2022/04/13 14:27:31;;;;;;;12.02;3.58;;;;;;;;;;4985321;28;20014;-66
2022/04/13 14:29:57;;;;;;;12.38;3.55;;;;;;;;;;4989026;28;20117;-66
2022/04/13 14:32:24;;;;;;;15.15;3.65;;;;;;;;;;4989215;28;20084;-66